createdAt,value
2017-10-15T07:40:29.922Z,16.60
2017-10-15T07:42:58.313Z,16.60
2017-10-15T07:45:26.746Z,16.80
2017-10-15T07:47:55.157Z,17.10
2017-10-15T07:50:23.471Z,17.30
2017-10-15T07:52:51.897Z,17.50
2017-10-15T07:55:22.078Z,17.90
2017-10-15T07:57:50.286Z,17.80
2017-10-15T08:00:18.717Z,18.00
2017-10-15T08:02:47.145Z,18.30
2017-10-15T08:05:15.792Z,18.70
2017-10-15T08:07:46.360Z,18.70
2017-10-15T08:10:14.789Z,18.90
2017-10-15T08:12:43.192Z,19.10
2017-10-15T08:15:11.567Z,19.30
2017-10-15T08:17:39.997Z,19.50
2017-10-15T08:20:08.382Z,19.70
2017-10-15T08:22:36.767Z,19.90
2017-10-15T08:25:05.169Z,20.10
2017-10-15T08:27:33.565Z,20.10
2017-10-15T08:30:01.950Z,20.30
2017-10-15T08:32:30.332Z,20.30
2017-10-15T08:34:59.514Z,20.60
2017-10-15T08:37:27.888Z,20.50
2017-10-15T08:39:56.289Z,20.80
2017-10-15T08:42:25.453Z,21.20
2017-10-15T08:44:53.649Z,21.10
2017-10-15T08:47:22.037Z,21.30
2017-10-15T08:49:51.196Z,21.60
2017-10-15T08:52:19.593Z,21.50
2017-10-15T08:54:48.013Z,21.70
2017-10-15T08:57:16.657Z,21.70
2017-10-15T08:59:45.049Z,21.70
2017-10-15T09:02:14.288Z,21.90
2017-10-15T09:04:42.509Z,21.90
2017-10-15T09:07:10.879Z,22.00
2017-10-15T09:09:39.269Z,22.20
2017-10-15T09:12:07.650Z,22.30
2017-10-15T09:14:36.039Z,22.40
2017-10-15T09:17:05.197Z,22.80
2017-10-15T09:19:33.609Z,22.70
2017-10-15T09:22:01.988Z,23.00
2017-10-15T09:24:31.137Z,23.50
2017-10-15T09:26:59.573Z,23.40
2017-10-15T09:29:28.740Z,23.70
2017-10-15T09:31:57.132Z,23.70
2017-10-15T09:34:25.495Z,23.80
2017-10-15T09:36:53.873Z,23.70
2017-10-15T09:39:22.252Z,23.80
2017-10-15T09:41:50.701Z,24.00
2017-10-15T09:44:19.092Z,24.10
2017-10-15T09:46:47.476Z,24.10
2017-10-15T09:49:15.877Z,24.30
2017-10-15T09:51:44.271Z,24.20
2017-10-15T09:54:13.417Z,24.90
2017-10-15T09:56:41.822Z,24.90
2017-10-15T09:59:10.206Z,25.00
2017-10-15T10:01:38.593Z,25.10
2017-10-15T10:04:06.972Z,24.90
2017-10-15T10:06:35.372Z,24.80
2017-10-15T10:09:03.218Z,24.90
2017-10-15T10:11:33.033Z,25.20
2017-10-15T10:14:02.196Z,25.30
2017-10-15T10:16:31.338Z,25.30
2017-10-15T10:19:00.485Z,25.60
2017-10-15T10:21:28.873Z,25.50
2017-10-15T10:23:58.069Z,25.20
2017-10-15T10:26:26.272Z,25.20
2017-10-15T10:28:55.463Z,25.30
2017-10-15T10:31:23.658Z,25.30
2017-10-15T10:33:51.840Z,25.40
2017-10-15T10:36:20.233Z,25.40
2017-10-15T10:38:48.612Z,25.50
2017-10-15T10:41:17.028Z,25.40
2017-10-15T10:43:45.417Z,25.50
2017-10-15T10:46:13.796Z,25.80
2017-10-15T10:48:42.250Z,26.10
2017-10-15T10:51:10.653Z,26.20
2017-10-15T10:53:39.059Z,26.10
2017-10-15T10:56:07.676Z,26.20
2017-10-15T10:58:36.147Z,26.30
2017-10-15T11:01:04.515Z,26.50
2017-10-15T11:03:32.885Z,26.60
2017-10-15T11:06:01.264Z,26.70
2017-10-15T11:08:29.633Z,26.60
2017-10-15T11:10:58.599Z,26.60
2017-10-15T11:13:26.968Z,26.60
2017-10-15T11:15:55.414Z,26.60
2017-10-15T11:18:23.597Z,26.20
2017-10-15T11:20:51.790Z,25.90
2017-10-15T11:23:19.992Z,25.90
2017-10-15T11:25:49.134Z,25.80
2017-10-15T11:28:17.549Z,25.80
2017-10-15T11:30:46.167Z,26.20
2017-10-15T11:33:14.589Z,26.00
2017-10-15T11:35:42.966Z,26.00
2017-10-15T11:38:11.372Z,25.90
2017-10-15T11:40:40.544Z,25.90
2017-10-15T11:43:08.981Z,25.80
2017-10-15T11:45:37.385Z,25.70
2017-10-15T11:48:05.826Z,25.70
2017-10-15T11:50:35.024Z,25.80
2017-10-15T11:53:04.154Z,25.70
2017-10-15T11:55:32.534Z,25.70
2017-10-15T11:58:00.921Z,25.70
2017-10-15T12:00:29.352Z,25.70
2017-10-15T12:02:58.346Z,25.80
2017-10-15T12:05:27.552Z,25.90
2017-10-15T12:07:55.961Z,25.90
2017-10-15T12:10:24.340Z,25.90
2017-10-15T12:12:52.795Z,25.70
2017-10-15T12:15:21.201Z,25.90
2017-10-15T12:17:49.604Z,26.10
2017-10-15T12:20:17.989Z,26.20
2017-10-15T12:22:46.361Z,26.20
2017-10-15T12:25:15.552Z,26.00
2017-10-15T12:27:43.937Z,26.00
2017-10-15T12:30:12.468Z,26.00
2017-10-15T12:32:41.323Z,26.00
2017-10-15T12:35:10.492Z,26.10
2017-10-15T12:37:38.890Z,26.10
2017-10-15T12:40:07.273Z,26.20
2017-10-15T12:42:36.451Z,26.10
2017-10-15T12:45:04.837Z,26.10
2017-10-15T12:47:33.237Z,26.30
2017-10-15T12:50:02.408Z,26.30
2017-10-15T12:52:30.786Z,26.30
2017-10-15T12:54:59.169Z,26.20
2017-10-15T12:57:27.355Z,26.10
2017-10-15T12:59:55.580Z,26.20
2017-10-15T13:02:24.097Z,26.40
2017-10-15T13:04:52.648Z,26.60
2017-10-15T13:07:21.037Z,26.80
2017-10-15T13:09:49.419Z,26.70
2017-10-15T13:12:17.860Z,26.80
2017-10-15T13:14:46.265Z,26.90
2017-10-15T13:17:14.475Z,27.00
2017-10-15T13:19:42.941Z,27.30
2017-10-15T13:22:11.327Z,27.40
2017-10-15T13:24:39.972Z,27.50
2017-10-15T13:27:08.209Z,27.50
2017-10-15T13:29:37.351Z,27.30
2017-10-15T13:32:05.742Z,27.30
2017-10-15T13:34:34.480Z,27.20
2017-10-15T13:37:02.705Z,27.20
2017-10-15T13:39:30.896Z,27.40
2017-10-15T13:41:59.289Z,27.50
2017-10-15T13:44:28.264Z,27.70
2017-10-15T13:46:56.637Z,27.70
2017-10-15T13:49:25.030Z,27.70
2017-10-15T13:51:53.430Z,27.70
2017-10-15T13:54:21.816Z,27.60
2017-10-15T13:56:50.208Z,27.60
2017-10-15T13:59:18.617Z,27.50
2017-10-15T14:01:47.002Z,27.40
2017-10-15T14:04:15.383Z,27.20
2017-10-15T14:06:43.754Z,27.10
2017-10-15T14:09:12.147Z,27.00
2017-10-15T14:11:40.530Z,27.00
2017-10-15T14:14:08.936Z,26.70
2017-10-15T14:16:37.333Z,26.40
2017-10-15T14:19:05.701Z,26.30
2017-10-15T14:21:34.120Z,26.10
2017-10-15T14:24:02.506Z,26.00
2017-10-15T14:26:30.904Z,25.90
2017-10-15T14:29:00.050Z,25.60
2017-10-15T14:31:28.446Z,25.50
2017-10-15T14:33:56.650Z,25.50
2017-10-15T14:36:24.913Z,25.50
2017-10-15T14:38:52.820Z,25.20
2017-10-15T14:41:21.047Z,25.10
2017-10-15T14:43:49.424Z,25.10
2017-10-15T14:46:17.821Z,24.90
2017-10-15T14:48:46.084Z,24.80
2017-10-15T14:51:14.478Z,24.80
2017-10-15T14:53:42.865Z,24.70
2017-10-15T14:56:12.017Z,24.50
2017-10-15T14:58:40.989Z,24.40
2017-10-15T15:01:09.379Z,24.40
2017-10-15T15:03:37.779Z,24.30
2017-10-15T15:06:06.150Z,24.30
2017-10-15T15:08:35.124Z,24.20
2017-10-15T15:11:03.389Z,24.10
2017-10-15T15:13:31.573Z,24.10
2017-10-15T15:15:59.995Z,23.90
2017-10-15T15:18:28.373Z,23.80
2017-10-15T15:20:56.765Z,23.70
2017-10-15T15:23:25.916Z,23.60
2017-10-15T15:25:54.357Z,23.60
2017-10-15T15:28:23.519Z,23.50
2017-10-15T15:30:51.891Z,23.40
2017-10-15T15:33:20.265Z,23.40
2017-10-15T15:35:48.664Z,23.30
2017-10-15T15:38:17.817Z,23.10
2017-10-15T15:40:46.220Z,23.10
2017-10-15T15:43:14.610Z,23.10
2017-10-15T15:45:42.988Z,22.90
2017-10-15T15:48:11.369Z,22.80
2017-10-15T15:50:40.537Z,22.50
2017-10-15T15:53:08.925Z,22.50
2017-10-15T15:55:37.293Z,22.40
2017-10-15T15:58:05.689Z,22.30
2017-10-15T16:00:34.081Z,22.20
2017-10-15T16:03:03.238Z,22.00
2017-10-15T16:05:31.629Z,22.00
2017-10-15T16:08:00.052Z,21.90
2017-10-15T16:10:28.500Z,21.70
2017-10-15T16:12:56.912Z,21.40
2017-10-15T16:15:25.308Z,21.30
2017-10-15T16:17:53.795Z,21.30
2017-10-15T16:20:22.234Z,21.30
2017-10-15T16:22:51.397Z,21.00
2017-10-15T16:25:19.803Z,21.00
2017-10-15T16:27:48.241Z,20.90
2017-10-15T16:30:16.652Z,20.80
2017-10-15T16:32:45.090Z,20.60
2017-10-15T16:35:13.494Z,20.30
2017-10-15T16:37:41.878Z,20.20
2017-10-15T16:40:10.262Z,19.90
2017-10-15T16:42:38.692Z,19.80
2017-10-15T16:45:07.079Z,19.80
2017-10-15T16:47:35.478Z,19.80
2017-10-15T16:50:03.677Z,19.90
2017-10-15T16:52:31.872Z,19.80
2017-10-15T16:55:00.878Z,19.60
2017-10-15T16:57:29.252Z,19.50
2017-10-15T16:59:58.239Z,19.50
2017-10-15T17:02:27.206Z,19.40
2017-10-15T17:04:55.600Z,19.40
2017-10-15T17:07:24.965Z,19.10
2017-10-15T17:09:53.161Z,19.00
2017-10-15T17:12:21.360Z,18.60
2017-10-15T17:14:50.327Z,18.30
2017-10-15T17:17:18.708Z,18.30
2017-10-15T17:19:47.693Z,18.10
2017-10-15T17:22:15.889Z,18.10
2017-10-15T17:24:45.024Z,18.10
2017-10-15T17:27:13.424Z,18.10
2017-10-15T17:29:41.832Z,18.00
2017-10-15T17:32:10.994Z,17.70
2017-10-15T17:34:39.242Z,17.60
2017-10-15T17:37:07.448Z,17.60
2017-10-15T17:39:35.860Z,17.40
2017-10-15T17:42:04.815Z,17.20
2017-10-15T17:44:33.204Z,17.10
2017-10-15T17:47:01.589Z,17.00
2017-10-15T17:49:29.624Z,17.00
2017-10-15T17:51:58.008Z,16.90
2017-10-15T17:54:26.457Z,16.80
2017-10-15T17:56:54.694Z,16.70
2017-10-15T17:59:22.418Z,16.60
2017-10-15T18:01:50.120Z,16.50
2017-10-15T18:04:18.516Z,16.50
2017-10-15T18:06:47.669Z,16.50
2017-10-15T18:09:16.197Z,16.40
2017-10-15T18:11:44.612Z,16.50
2017-10-15T18:14:12.986Z,16.40
2017-10-15T18:16:41.384Z,16.20
2017-10-15T18:19:09.769Z,16.20
2017-10-15T18:21:38.146Z,16.10
2017-10-15T18:24:06.532Z,16.00
2017-10-15T18:26:34.620Z,16.00
2017-10-15T18:29:03.008Z,16.00
2017-10-15T18:31:32.155Z,16.00
2017-10-15T18:34:00.577Z,16.00
2017-10-15T18:36:28.959Z,16.20
2017-10-15T18:38:58.112Z,16.50
2017-10-15T18:41:26.530Z,16.50
2017-10-15T18:43:54.918Z,16.70
2017-10-15T18:46:23.995Z,17.10
2017-10-15T18:48:53.185Z,17.10
2017-10-15T18:51:21.593Z,17.10
2017-10-15T18:53:50.563Z,17.20
2017-10-15T18:56:19.006Z,17.20
2017-10-15T18:58:47.405Z,17.10
2017-10-15T19:01:15.853Z,17.10
2017-10-15T19:03:44.266Z,17.10
2017-10-15T19:06:12.684Z,17.00
2017-10-15T19:08:41.373Z,17.00
2017-10-15T19:11:09.576Z,17.00
2017-10-15T19:13:37.998Z,17.10
2017-10-15T19:16:06.217Z,17.10
2017-10-15T19:18:34.413Z,17.10
2017-10-15T19:21:03.906Z,17.10
2017-10-15T19:23:33.465Z,17.20
2017-10-15T19:26:03.057Z,17.30
2017-10-15T19:28:33.522Z,17.10
2017-10-15T19:31:02.710Z,17.30
2017-10-15T19:33:31.876Z,17.30
2017-10-15T19:36:00.281Z,17.20
2017-10-15T19:38:29.454Z,17.30
2017-10-15T19:40:57.653Z,17.20
2017-10-15T19:45:56.832Z,17.30
2017-10-15T19:50:57.621Z,17.20
2017-10-15T19:53:28.168Z,17.40
2017-10-15T19:55:56.553Z,17.20
2017-10-15T19:58:24.931Z,17.50
2017-10-15T20:00:53.149Z,17.50
2017-10-15T20:03:22.493Z,17.50
2017-10-15T20:05:50.708Z,17.50
2017-10-15T20:08:19.084Z,17.50
2017-10-15T20:10:47.501Z,17.60
2017-10-15T20:13:16.677Z,17.60
2017-10-15T20:15:44.953Z,17.60
2017-10-15T20:18:13.340Z,17.60
2017-10-15T20:20:42.891Z,17.60
2017-10-15T20:23:11.290Z,17.50
2017-10-15T20:25:39.695Z,17.60
2017-10-15T20:28:08.101Z,17.50
2017-10-15T20:30:36.488Z,17.50
2017-10-15T20:33:04.883Z,17.40
2017-10-15T20:35:33.542Z,17.40
2017-10-15T20:38:01.944Z,17.40
2017-10-15T20:40:30.343Z,17.30
2017-10-15T20:42:58.805Z,17.30
2017-10-15T20:45:27.244Z,17.20
2017-10-15T20:47:56.528Z,17.10
2017-10-15T20:50:24.904Z,17.10
2017-10-15T20:52:54.442Z,17.30
2017-10-15T20:55:22.827Z,17.20
2017-10-15T20:57:51.214Z,17.30
2017-10-15T21:00:19.606Z,17.40
2017-10-15T21:02:49.213Z,17.40
2017-10-15T21:05:17.607Z,17.40
2017-10-15T21:07:46.001Z,17.40
2017-10-15T21:10:14.496Z,17.40
2017-10-15T21:12:42.888Z,17.40
2017-10-15T21:15:12.045Z,17.40
2017-10-15T21:17:40.421Z,17.30
2017-10-15T21:20:08.816Z,17.40
2017-10-15T21:22:37.203Z,17.30
2017-10-15T21:25:05.579Z,17.30
2017-10-15T21:27:33.977Z,17.30
2017-10-15T21:30:03.504Z,17.30
2017-10-15T21:32:31.904Z,17.20
2017-10-15T21:35:01.113Z,17.20
2017-10-15T21:37:29.507Z,17.10
2017-10-15T21:39:59.340Z,17.10
2017-10-15T21:42:27.533Z,17.10
2017-10-15T21:44:55.933Z,17.10
2017-10-15T21:47:23.962Z,17.10
2017-10-15T21:49:53.112Z,17.10
2017-10-15T21:52:21.502Z,17.10
2017-10-15T21:54:50.917Z,17.10
2017-10-15T21:57:19.284Z,17.10
2017-10-15T21:59:47.657Z,17.10
2017-10-15T22:02:16.045Z,17.10
2017-10-15T22:04:44.449Z,17.10
2017-10-15T22:07:13.618Z,17.10
2017-10-15T22:09:41.988Z,17.10
2017-10-15T22:12:10.393Z,17.10
2017-10-15T22:14:38.773Z,17.00
2017-10-15T22:17:07.149Z,17.00
2017-10-15T22:19:35.533Z,17.00
2017-10-15T22:22:09.376Z,16.90
2017-10-15T22:24:37.772Z,16.90
2017-10-15T22:27:06.154Z,16.80
2017-10-15T22:29:34.545Z,16.80
2017-10-15T22:32:02.921Z,16.80
2017-10-15T22:34:31.301Z,16.80
2017-10-15T22:36:59.696Z,16.80
2017-10-15T22:39:28.097Z,16.90
2017-10-15T22:41:57.238Z,16.80
2017-10-15T22:44:25.617Z,16.80
2017-10-15T22:46:54.020Z,16.90
2017-10-15T22:49:22.397Z,16.80
2017-10-15T22:51:50.789Z,16.80
2017-10-15T22:54:19.173Z,16.80
2017-10-15T22:56:48.330Z,16.70
2017-10-15T22:59:16.720Z,16.70
2017-10-15T23:01:45.872Z,16.70
2017-10-15T23:04:14.261Z,16.60
2017-10-15T23:06:42.645Z,16.70
2017-10-15T23:09:11.032Z,16.60
2017-10-15T23:11:39.413Z,16.60
2017-10-15T23:14:07.813Z,16.50
2017-10-15T23:16:36.191Z,16.50
2017-10-15T23:19:04.562Z,16.50
2017-10-15T23:21:32.950Z,16.60
2017-10-15T23:24:01.325Z,16.60
2017-10-15T23:26:29.707Z,16.60
2017-10-15T23:28:59.586Z,16.70
2017-10-15T23:31:27.993Z,16.70
2017-10-15T23:33:56.373Z,16.70
2017-10-15T23:36:24.569Z,16.70
2017-10-15T23:38:53.552Z,16.60
2017-10-15T23:41:21.935Z,16.60
2017-10-15T23:43:50.327Z,16.60
2017-10-15T23:46:19.464Z,16.50
2017-10-15T23:48:47.869Z,16.50
2017-10-15T23:51:16.259Z,16.40
2017-10-15T23:53:44.891Z,16.40
2017-10-15T23:56:13.287Z,16.40
2017-10-15T23:58:41.657Z,16.30
